ITY457 LIRF-LIRN
Flight info
| Callsign | ITY457 |
|---|---|
| Flight time | 0h 28m |
| Altitude | 23000 |
| Route | RIFFI DCT PNZ |
| Aircraft | A320/M-SDE3FGHIRWY/LB1 |
Departure
| Time | 2026-05-05 03:08 |
|---|---|
| Airport | Rome–Fiumicino Leonardo da Vinci International Airport (LIRF) |
Arrival
| Time | 2026-05-05 03:36 |
|---|---|
| Airport | Naples International Airport (LIRN) |
| Time | Latitude | Longitude | Altitude | Speed | Heading |
|---|---|---|---|---|---|
| 2026-05-05 02:44 | 41.79768 | 12.25670 | 15 ft | 0 kts | 296° |
| 2026-05-05 02:58 | 41.79767 | 12.25671 | 15 ft | 2 kts | 295° |
| 2026-05-05 02:58 | 41.79757 | 12.25700 | 16 ft | 2 kts | 295° |
| 2026-05-05 02:58 | 41.79748 | 12.25722 | 16 ft | 4 kts | 343° |
| 2026-05-05 02:58 | 41.79732 | 12.25721 | 16 ft | 0 kts | 25° |
| 2026-05-05 03:01 | 41.79738 | 12.25725 | 15 ft | 3 kts | 25° |
| 2026-05-05 03:01 | 41.79776 | 12.25749 | 15 ft | 8 kts | 25° |
| 2026-05-05 03:02 | 41.79827 | 12.25781 | 15 ft | 7 kts | 27° |
| 2026-05-05 03:02 | 41.79876 | 12.25822 | 16 ft | 10 kts | 32° |
| 2026-05-05 03:02 | 41.79932 | 12.25860 | 15 ft | 8 kts | 25° |
| 2026-05-05 03:02 | 41.79981 | 12.25890 | 15 ft | 7 kts | 24° |
| 2026-05-05 03:03 | 41.80038 | 12.25925 | 16 ft | 11 kts | 24° |
| 2026-05-05 03:03 | 41.80110 | 12.25969 | 15 ft | 11 kts | 25° |
| 2026-05-05 03:03 | 41.80176 | 12.26009 | 17 ft | 10 kts | 25° |
| 2026-05-05 03:03 | 41.80232 | 12.26045 | 15 ft | 8 kts | 25° |
| 2026-05-05 03:04 | 41.80279 | 12.26074 | 15 ft | 7 kts | 24° |
| 2026-05-05 03:04 | 41.80325 | 12.26101 | 15 ft | 9 kts | 24° |
| 2026-05-05 03:04 | 41.80399 | 12.26148 | 16 ft | 13 kts | 25° |
| 2026-05-05 03:04 | 41.80481 | 12.26188 | 15 ft | 12 kts | 22° |
| 2026-05-05 03:05 | 41.80536 | 12.26265 | 15 ft | 13 kts | 66° |
| 2026-05-05 03:05 | 41.80571 | 12.26393 | 15 ft | 16 kts | 70° |
| 2026-05-05 03:05 | 41.80614 | 12.26548 | 16 ft | 19 kts | 70° |
| 2026-05-05 03:05 | 41.80661 | 12.26720 | 17 ft | 20 kts | 69° |
| 2026-05-05 03:06 | 41.80713 | 12.26902 | 15 ft | 21 kts | 70° |
| 2026-05-05 03:06 | 41.80759 | 12.27029 | 16 ft | 11 kts | 41° |
| 2026-05-05 03:06 | 41.80817 | 12.27038 | 15 ft | 8 kts | 347° |
| 2026-05-05 03:06 | 41.80864 | 12.27017 | 15 ft | 8 kts | 340° |
| 2026-05-05 03:07 | 41.80939 | 12.26975 | 14 ft | 14 kts | 325° |
| 2026-05-05 03:07 | 41.80943 | 12.26868 | 14 ft | 11 kts | 250° |
| 2026-05-05 03:07 | 41.80888 | 12.26671 | 15 ft | 52 kts | 249° |
| 2026-05-05 03:07 | 41.80676 | 12.25916 | 17 ft | 118 kts | 249° |
| 2026-05-05 03:08 | 41.80326 | 12.24653 | 21 ft | 168 kts | 252° |
| 2026-05-05 03:08 | 41.79933 | 12.23116 | 514 ft | 175 kts | 247° |
| 2026-05-05 03:08 | 41.79501 | 12.21595 | 1278 ft | 175 kts | 245° |
| 2026-05-05 03:08 | 41.79281 | 12.19907 | 1711 ft | 197 kts | 263° |
| 2026-05-05 03:09 | 41.79029 | 12.18029 | 2053 ft | 214 kts | 239° |
| 2026-05-05 03:09 | 41.78010 | 12.16523 | 2449 ft | 230 kts | 206° |
| 2026-05-05 03:09 | 41.76426 | 12.16135 | 3051 ft | 240 kts | 170° |
| 2026-05-05 03:09 | 41.74899 | 12.17091 | 3892 ft | 248 kts | 147° |
| 2026-05-05 03:10 | 41.73426 | 12.18332 | 4770 ft | 253 kts | 154° |
| 2026-05-05 03:10 | 41.71846 | 12.19421 | 5562 ft | 259 kts | 157° |
| 2026-05-05 03:10 | 41.70205 | 12.20479 | 6380 ft | 265 kts | 158° |
| 2026-05-05 03:10 | 41.68522 | 12.21563 | 7118 ft | 272 kts | 158° |
| 2026-05-05 03:11 | 41.66808 | 12.22690 | 7941 ft | 277 kts | 157° |
| 2026-05-05 03:11 | 41.65071 | 12.23854 | 8788 ft | 281 kts | 156° |
| 2026-05-05 03:11 | 41.63323 | 12.25048 | 9669 ft | 284 kts | 156° |
| 2026-05-05 03:11 | 41.61552 | 12.26267 | 10407 ft | 290 kts | 155° |
| 2026-05-05 03:12 | 41.59691 | 12.27549 | 10672 ft | 313 kts | 155° |
| 2026-05-05 03:12 | 41.57684 | 12.28933 | 10894 ft | 336 kts | 155° |
| 2026-05-05 03:12 | 41.55559 | 12.30403 | 11265 ft | 350 kts | 155° |
| 2026-05-05 03:12 | 41.53381 | 12.31914 | 11921 ft | 355 kts | 155° |
| 2026-05-05 03:13 | 41.51169 | 12.33446 | 12521 ft | 362 kts | 156° |
| 2026-05-05 03:13 | 41.48918 | 12.35005 | 13172 ft | 366 kts | 156° |
| 2026-05-05 03:13 | 41.46672 | 12.36560 | 13831 ft | 371 kts | 156° |
| 2026-05-05 03:13 | 41.44370 | 12.38151 | 14426 ft | 375 kts | 156° |
| 2026-05-05 03:14 | 41.42039 | 12.39759 | 15019 ft | 378 kts | 156° |
| 2026-05-05 03:14 | 41.39690 | 12.41378 | 15603 ft | 382 kts | 156° |
| 2026-05-05 03:14 | 41.37323 | 12.43008 | 16239 ft | 384 kts | 156° |
| 2026-05-05 03:14 | 41.34941 | 12.44646 | 16826 ft | 387 kts | 156° |
| 2026-05-05 03:15 | 41.32538 | 12.46296 | 17403 ft | 391 kts | 156° |
| 2026-05-05 03:15 | 41.30111 | 12.47964 | 17935 ft | 395 kts | 156° |
| 2026-05-05 03:15 | 41.27653 | 12.49650 | 18396 ft | 401 kts | 156° |
| 2026-05-05 03:15 | 41.25156 | 12.51360 | 18832 ft | 405 kts | 156° |
| 2026-05-05 03:16 | 41.22720 | 12.53292 | 19272 ft | 412 kts | 147° |
| 2026-05-05 03:16 | 41.20533 | 12.55812 | 19719 ft | 420 kts | 137° |
| 2026-05-05 03:16 | 41.18492 | 12.58612 | 20169 ft | 424 kts | 137° |
| 2026-05-05 03:16 | 41.16429 | 12.61437 | 20606 ft | 428 kts | 137° |
| 2026-05-05 03:17 | 41.14346 | 12.64289 | 21036 ft | 432 kts | 137° |
| 2026-05-05 03:17 | 41.12244 | 12.67160 | 21463 ft | 435 kts | 137° |
| 2026-05-05 03:17 | 41.10122 | 12.70049 | 21889 ft | 439 kts | 137° |
| 2026-05-05 03:17 | 41.07980 | 12.72958 | 22293 ft | 443 kts | 137° |
| 2026-05-05 03:18 | 41.05845 | 12.75854 | 22677 ft | 447 kts | 137° |
| 2026-05-05 03:18 | 41.03668 | 12.78805 | 23021 ft | 449 kts | 137° |
| 2026-05-05 03:18 | 41.01469 | 12.81784 | 23097 ft | 457 kts | 137° |
| 2026-05-05 03:18 | 40.99196 | 12.84863 | 23098 ft | 464 kts | 137° |
| 2026-05-05 03:19 | 40.94703 | 12.90951 | 23093 ft | 466 kts | 136° |
| 2026-05-05 03:19 | 40.92650 | 12.94282 | 23096 ft | 470 kts | 127° |
| 2026-05-05 03:19 | 40.91009 | 12.98028 | 23097 ft | 472 kts | 117° |
| 2026-05-05 03:20 | 40.89827 | 13.02084 | 23099 ft | 474 kts | 107° |
| 2026-05-05 03:20 | 40.88922 | 13.06339 | 23098 ft | 475 kts | 107° |
| 2026-05-05 03:20 | 40.88038 | 13.10486 | 23098 ft | 475 kts | 107° |
| 2026-05-05 03:20 | 40.87138 | 13.14677 | 23091 ft | 475 kts | 107° |
| 2026-05-05 03:21 | 40.86236 | 13.18855 | 22934 ft | 470 kts | 107° |
| 2026-05-05 03:21 | 40.85369 | 13.22996 | 22671 ft | 465 kts | 103° |
| 2026-05-05 03:21 | 40.85056 | 13.27225 | 22410 ft | 462 kts | 87° |
| 2026-05-05 03:21 | 40.85544 | 13.31391 | 22151 ft | 458 kts | 74° |
| 2026-05-05 03:22 | 40.86345 | 13.35469 | 21899 ft | 457 kts | 74° |
| 2026-05-05 03:22 | 40.87151 | 13.39515 | 21637 ft | 455 kts | 74° |
| 2026-05-05 03:22 | 40.87957 | 13.43532 | 21206 ft | 450 kts | 74° |
| 2026-05-05 03:22 | 40.88756 | 13.47519 | 20578 ft | 447 kts | 74° |
| 2026-05-05 03:23 | 40.89545 | 13.51470 | 19981 ft | 443 kts | 74° |
| 2026-05-05 03:23 | 40.90322 | 13.55393 | 19426 ft | 439 kts | 75° |
| 2026-05-05 03:23 | 40.91080 | 13.59260 | 19208 ft | 427 kts | 75° |
| 2026-05-05 03:23 | 40.91804 | 13.62994 | 19090 ft | 412 kts | 75° |
| 2026-05-05 03:24 | 40.92506 | 13.66600 | 18972 ft | 399 kts | 75° |
| 2026-05-05 03:24 | 40.93189 | 13.70086 | 18726 ft | 386 kts | 75° |
| 2026-05-05 03:24 | 40.93857 | 13.73490 | 18147 ft | 380 kts | 75° |
| 2026-05-05 03:24 | 40.94519 | 13.76865 | 17502 ft | 375 kts | 75° |
| 2026-05-05 03:25 | 40.95167 | 13.80180 | 16897 ft | 370 kts | 76° |
| 2026-05-05 03:25 | 40.95804 | 13.83458 | 16308 ft | 365 kts | 76° |
| 2026-05-05 03:25 | 40.96428 | 13.86678 | 15646 ft | 359 kts | 76° |
| 2026-05-05 03:25 | 40.97042 | 13.89854 | 15003 ft | 352 kts | 76° |
| 2026-05-05 03:26 | 40.97641 | 13.92964 | 14391 ft | 346 kts | 76° |
| 2026-05-05 03:26 | 40.98229 | 13.96023 | 13773 ft | 340 kts | 76° |
| 2026-05-05 03:26 | 40.98801 | 13.98996 | 13075 ft | 335 kts | 76° |
| 2026-05-05 03:26 | 40.99373 | 14.01964 | 12350 ft | 332 kts | 76° |
| 2026-05-05 03:27 | 40.99939 | 14.04919 | 11625 ft | 329 kts | 76° |
| 2026-05-05 03:27 | 41.00499 | 14.07847 | 10896 ft | 327 kts | 76° |
| 2026-05-05 03:27 | 41.01056 | 14.10761 | 10196 ft | 325 kts | 76° |
| 2026-05-05 03:27 | 41.01608 | 14.13638 | 9745 ft | 314 kts | 76° |
| 2026-05-05 03:28 | 41.02127 | 14.16336 | 9634 ft | 292 kts | 76° |
| 2026-05-05 03:28 | 41.02607 | 14.18849 | 9509 ft | 273 kts | 76° |
| 2026-05-05 03:28 | 41.03059 | 14.21207 | 9373 ft | 256 kts | 76° |
| 2026-05-05 03:28 | 41.03483 | 14.23427 | 9238 ft | 242 kts | 76° |
| 2026-05-05 03:29 | 41.03886 | 14.25554 | 8964 ft | 235 kts | 77° |
| 2026-05-05 03:29 | 41.04283 | 14.27644 | 8597 ft | 233 kts | 76° |
| 2026-05-05 03:29 | 41.04676 | 14.29722 | 8228 ft | 232 kts | 77° |
| 2026-05-05 03:29 | 41.05066 | 14.31789 | 7876 ft | 230 kts | 77° |
| 2026-05-05 03:30 | 41.05451 | 14.33842 | 7511 ft | 229 kts | 77° |
| 2026-05-05 03:30 | 41.05836 | 14.35887 | 7165 ft | 228 kts | 76° |
| 2026-05-05 03:30 | 41.06217 | 14.37921 | 6816 ft | 227 kts | 76° |
| 2026-05-05 03:30 | 41.06509 | 14.39967 | 6472 ft | 225 kts | 92° |
| 2026-05-05 03:31 | 41.06179 | 14.41959 | 5983 ft | 225 kts | 121° |
| 2026-05-05 03:31 | 41.05161 | 14.43515 | 5397 ft | 226 kts | 150° |
| 2026-05-05 03:31 | 41.03792 | 14.44502 | 4998 ft | 223 kts | 155° |
| 2026-05-05 03:31 | 41.02452 | 14.45439 | 4667 ft | 218 kts | 155° |
| 2026-05-05 03:32 | 41.01130 | 14.46362 | 4389 ft | 211 kts | 158° |
| 2026-05-05 03:32 | 40.99763 | 14.46875 | 4130 ft | 199 kts | 176° |
| 2026-05-05 03:32 | 40.98383 | 14.46785 | 3664 ft | 202 kts | 194° |
| 2026-05-05 03:32 | 40.97104 | 14.46094 | 3347 ft | 196 kts | 212° |
| 2026-05-05 03:33 | 40.96387 | 14.45350 | 3164 ft | 192 kts | 225° |
| 2026-05-05 03:33 | 40.95374 | 14.43485 | 2805 ft | 186 kts | 238° |
| 2026-05-05 03:33 | 40.94697 | 14.42041 | 2529 ft | 183 kts | 237° |
| 2026-05-05 03:33 | 40.94032 | 14.40622 | 2281 ft | 178 kts | 237° |
| 2026-05-05 03:34 | 40.93595 | 14.39692 | 2095 ft | 174 kts | 237° |
| 2026-05-05 03:34 | 40.92964 | 14.38348 | 1830 ft | 169 kts | 237° |
| 2026-05-05 03:34 | 40.92361 | 14.37065 | 1573 ft | 160 kts | 238° |
| 2026-05-05 03:34 | 40.91798 | 14.35868 | 1348 ft | 148 kts | 238° |
| 2026-05-05 03:35 | 40.91266 | 14.34723 | 1132 ft | 144 kts | 239° |
| 2026-05-05 03:35 | 40.90749 | 14.33614 | 903 ft | 143 kts | 238° |
| 2026-05-05 03:35 | 40.90225 | 14.32503 | 665 ft | 142 kts | 238° |
| 2026-05-05 03:35 | 40.89692 | 14.31387 | 431 ft | 142 kts | 238° |
| 2026-05-05 03:36 | 40.89180 | 14.30294 | 242 ft | 141 kts | 238° |
| 2026-05-05 03:36 | 40.88708 | 14.29295 | 254 ft | 106 kts | 238° |
| 2026-05-05 03:36 | 40.88409 | 14.28666 | 276 ft | 50 kts | 237° |
| 2026-05-05 03:36 | 40.88269 | 14.28461 | 284 ft | 23 kts | 216° |
| 2026-05-05 03:37 | 40.88151 | 14.28369 | 289 ft | 18 kts | 209° |
| 2026-05-05 03:37 | 40.88087 | 14.28328 | 288 ft | 6 kts | 186° |
| 2026-05-05 03:37 | 40.88066 | 14.28353 | 293 ft | 3 kts | 117° |
| 2026-05-05 03:37 | 40.88061 | 14.28374 | 291 ft | 2 kts | 105° |
| 2026-05-05 03:38 | 40.88052 | 14.28449 | 288 ft | 13 kts | 98° |
| 2026-05-05 03:38 | 40.88042 | 14.28559 | 294 ft | 8 kts | 96° |
| 2026-05-05 03:38 | 40.88059 | 14.28591 | 287 ft | 4 kts | 1° |
| 2026-05-05 03:38 | 40.88090 | 14.28572 | 289 ft | 6 kts | 329° |
| 2026-05-05 03:39 | 40.88114 | 14.28552 | 286 ft | 2 kts | 328° |
| 2026-05-05 03:39 | 40.88117 | 14.28550 | 285 ft | 0 kts | 328° |